| time (UTC) | temp C | wind direction | speed KPH | gust KPH | rain 1hr cm | rain 24hr cm | rain mn cm | humidity % | barometer mb |
| 20260508001547 | -17 | 0.0 | 0.0 | 0.00 | 0.00 | 0.00 | 1001.7 | ||
| 20260508000105 | -17 | 0.0 | 0.0 | 0.00 | 0.00 | 0.00 | 1001.7 | ||
| 20260507234546 | -17 | 0.0 | 0.0 | 0.00 | 0.00 | 0.00 | 1001.7 | ||
| 20260507233049 | -17 | 0.0 | 0.0 | 0.00 | 0.00 | 0.00 | 1001.7 | ||
| 20260507231555 | -17 | 0.0 | 0.0 | 0.00 | 0.00 | 0.00 | 1001.3 | ||
| 20260507230047 | -17 | 0.0 | 0.0 | 0.00 | 0.00 | 0.00 | 1001.4 | ||
| 20260507224553 | -17 | 0.0 | 0.0 | 0.00 | 0.00 | 0.00 | 1001.5 | ||
| 20260507223048 | -17 | 0.0 | 0.0 | 0.00 | 0.00 | 0.00 | 1001.7 | ||
| 20260507221551 | -17 | 0.0 | 0.0 | 0.00 | 0.00 | 0.00 | 1001.6 | ||
| 20260507220048 | -17 | 0.0 | 0.0 | 0.00 | 0.00 | 0.00 | 1001.8 | ||
| 20260507214549 | -17 | 0.0 | 0.0 | 0.00 | 0.00 | 0.00 | 1002.1 | ||
| 20260507213047 | -17 | 0.0 | 0.0 | 0.00 | 0.00 | 0.00 | 1001.8 | ||
| 20260507211550 | -17 | 0.0 | 0.0 | 0.00 | 0.00 | 0.00 | 1001.7 | ||
| 20260507210048 | -17 | 0.0 | 0.0 | 0.00 | 0.00 | 0.00 | 1001.7 | ||
| 20260507204543 | -17 | 0.0 | 0.0 | 0.00 | 0.00 | 0.00 | 1001.1 | ||
| 20260507203051 | -17 | 0.0 | 0.0 | 0.00 | 0.00 | 0.00 | 1001.5 | ||
| 20260507201547 | -17 | 0.0 | 0.0 | 0.00 | 0.00 | 0.00 | 1002.5 | ||
| 20260507200047 | -17 | 0.0 | 0.0 | 0.00 | 0.00 | 0.00 | 1002.7 | ||
| 20260507194544 | -17 | 0.0 | 0.0 | 0.00 | 0.00 | 0.00 | 1003.3 | ||
| 20260507193051 | -17 | 0.0 | 0.0 | 0.00 | 0.00 | 0.00 | 1003.4 | ||
| 20260507191541 | -17 | 0.0 | 0.0 | 0.00 | 0.00 | 0.00 | 1003.9 | ||
| 20260507190046 | -17 | 0.0 | 0.0 | 0.00 | 0.00 | 0.00 | 1004.3 | ||
| 20260507184549 | -17 | 0.0 | 0.0 | 0.00 | 0.00 | 0.00 | 1004.3 | ||
| 20260507183045 | -17 | 0.0 | 0.0 | 0.00 | 0.00 | 0.00 | 1004.5 | ||
| 20260507181543 | -17 | 0.0 | 0.0 | 0.00 | 0.00 | 0.00 | 1005.0 | ||
| 20260507180042 | -17 | 0.0 | 0.0 | 0.00 | 0.00 | 0.00 | 1004.9 | ||
| 20260507174614 | -17 | 0.0 | 0.0 | 0.00 | 0.00 | 0.00 | 1004.1 | ||
| 20260507173048 | -17 | 0.0 | 0.0 | 0.00 | 0.00 | 0.00 | 1004.2 | ||
| 20260507171601 | -17 | 0.0 | 0.0 | 0.00 | 0.00 | 0.00 | 1004.4 | ||
| 20260507170048 | -17 | 0.0 | 0.0 | 0.00 | 0.00 | 0.00 | 1004.6 | ||
| 20260507164552 | -17 | 162 | 9.7 | 19.3 | 0.00 | 0.00 | 0.00 | 1005.2 | |
| 20260507163048 | -17 | 157 | 12.9 | 24.1 | 0.00 | 0.00 | 0.00 | 1006.0 | |
| 20260507161552 | -17 | 204 | 17.7 | 37.0 | 0.00 | 0.00 | 0.00 | 1006.1 | |
| 20260507160110 | -17 | 185 | 17.7 | 41.8 | 0.00 | 0.00 | 0.00 | 1006.7 | |
| 20260507154547 | -17 | 198 | 22.5 | 33.8 | 0.00 | 0.00 | 0.00 | 1006.8 | |
| 20260507153044 | -17 | 144 | 20.9 | 37.0 | 0.00 | 0.00 | 0.00 | 1007.2 | |
| 20260507151543 | -17 | 154 | 24.1 | 38.6 | 0.00 | 0.00 | 0.00 | 1007.4 | |
| 20260507150051 | -17 | 167 | 24.1 | 33.8 | 0.00 | 0.00 | 0.00 | 1007.8 | |
| 20260507144551 | -17 | 178 | 14.5 | 35.4 | 0.00 | 0.00 | 0.00 | 1007.8 | |
| 20260507143052 | -17 | 204 | 17.7 | 25.7 | 0.00 | 0.00 | 0.00 | 1007.9 | |
| 20260507141547 | -17 | 134 | 19.3 | 33.8 | 0.00 | 0.00 | 0.00 | 1008.2 | |
| 20260507140053 | -17 | 142 | 27.4 | 35.4 | 0.00 | 0.00 | 0.00 | 1008.5 | |
| 20260507134544 | -17 | 153 | 17.7 | 35.4 | 0.00 | 0.00 | 0.00 | 1008.5 | |
| 20260507133057 | -17 | 179 | 19.3 | 30.6 | 0.00 | 0.00 | 0.00 | 1008.7 | |
| 20260507131613 | -17 | 196 | 12.9 | 41.8 | 0.00 | 0.00 | 0.00 | 1009.1 | |
| 20260507130047 | -17 | 170 | 33.8 | 46.7 | 0.00 | 0.00 | 0.00 | 1009.2 | |
| 20260507124553 | -17 | 164 | 25.7 | 35.4 | 0.00 | 0.00 | 0.00 | 1008.6 | |
| 20260507123047 | -17 | 143 | 19.3 | 30.6 | 0.00 | 0.00 | 0.00 | 1009.0 | |
| 20260507121543 | -17 | 157 | 25.7 | 41.8 | 0.00 | 0.00 | 0.00 | 1009.0 | |
| 20260507120044 | -17 | 163 | 27.4 | 45.1 | 0.00 | 0.00 | 0.00 | 1009.9 | |
| 20260507114548 | -17 | 197 | 29.0 | 41.8 | 0.00 | 0.00 | 0.00 | 1009.9 | |
| 20260507113109 | -17 | 147 | 27.4 | 38.6 | 0.00 | 0.00 | 0.00 | 1010.5 | |
| 20260507111547 | -17 | 150 | 29.0 | 46.7 | 0.00 | 0.00 | 0.00 | 1010.4 | |
| 20260507110047 | -17 | 196 | 12.9 | 33.8 | 0.00 | 0.00 | 0.00 | 1010.7 | |
| 20260507104554 | -17 | 167 | 22.5 | 33.8 | 0.00 | 0.00 | 0.00 | 1010.7 | |
| 20260507103048 | -17 | 184 | 11.3 | 33.8 | 0.00 | 0.00 | 0.00 | 1011.2 | |
| 20260507101542 | -17 | 220 | 25.7 | 48.3 | 0.00 | 0.00 | 0.00 | 1011.7 | |
| 20260507100057 | -17 | 203 | 27.4 | 35.4 | 0.00 | 0.00 | 0.00 | 1011.6 | |
| 20260507094547 | -17 | 219 | 24.1 | 33.8 | 0.00 | 0.00 | 0.00 | 1011.6 | |
| 20260507093045 | -17 | 197 | 16.1 | 27.4 | 0.00 | 0.00 | 0.00 | 1011.4 | |
| 20260507091547 | -17 | 217 | 16.1 | 35.4 | 0.00 | 0.00 | 0.00 | 1011.5 | |
| 20260507090042 | -17 | 225 | 12.9 | 20.9 | 0.00 | 0.00 | 0.00 | 1011.8 | |
| 20260507084557 | -17 | 196 | 14.5 | 20.9 | 0.00 | 0.00 | 0.00 | 1011.7 | |
| 20260507083049 | -17 | 220 | 11.3 | 17.7 | 0.00 | 0.00 | 0.00 | 1011.7 | |
| 20260507081547 | -17 | 160 | 14.5 | 25.7 | 0.00 | 0.00 | 0.00 | 1011.9 | |
| 20260507080047 | -17 | 194 | 4.8 | 16.1 | 0.00 | 0.00 | 0.00 | 1012.3 | |
| 20260507074554 | -17 | 158 | 11.3 | 24.1 | 0.00 | 0.00 | 0.00 | 1012.4 | |
| 20260507073043 | -17 | 158 | 8.0 | 22.5 | 0.00 | 0.00 | 0.00 | 1012.7 | |
| 20260507071550 | -17 | 174 | 9.7 | 22.5 | 0.00 | 0.00 | 0.00 | 1013.3 | |
| 20260507064547 | -17 | 210 | 19.3 | 25.7 | 0.00 | 0.00 | 0.00 | 1013.6 | |
| 20260507063052 | -17 | 157 | 8.0 | 16.1 | 0.00 | 0.00 | 0.00 | 1013.7 | |
| 20260507061545 | -17 | 220 | 11.3 | 17.7 | 0.00 | 0.00 | 0.00 | 1013.6 | |
| 20260507060050 | -17 | 213 | 11.3 | 16.1 | 0.00 | 0.00 | 0.00 | 1014.1 | |
| 20260507054545 | -17 | 194 | 8.0 | 17.7 | 0.00 | 0.00 | 0.00 | 1014.1 | |
| 20260507053047 | -17 | 186 | 4.8 | 17.7 | 0.00 | 0.00 | 0.00 | 1014.5 | |
| 20260507051548 | -17 | 135 | 17.7 | 20.9 | 0.00 | 0.00 | 0.00 | 1014.7 | |
| 20260507050107 | -17 | 142 | 12.9 | 19.3 | 0.00 | 0.00 | 0.00 | 1015.2 | |
| 20260507044553 | -17 | 148 | 3.2 | 12.9 | 0.00 | 0.00 | 0.00 | 1015.4 | |
| 20260507043049 | -17 | 120 | 8.0 | 17.7 | 0.00 | 0.00 | 0.00 | 1015.5 | |
| 20260507041554 | -17 | 134 | 9.7 | 17.7 | 0.00 | 0.00 | 0.00 | 1015.9 | |
| 20260507040050 | -17 | 182 | 6.4 | 17.7 | 0.00 | 0.00 | 0.00 | 1016.1 | |
| 20260507034550 | -17 | 140 | 8.0 | 17.7 | 0.00 | 0.00 | 0.00 | 1016.1 | |
| 20260507033049 | -17 | 152 | 8.0 | 16.1 | 0.00 | 0.00 | 0.00 | 1016.4 | |
| 20260507031552 | -17 | 160 | 6.4 | 19.3 | 0.00 | 0.00 | 0.00 | 1016.7 | |
| 20260507030051 | -17 | 141 | 14.5 | 20.9 | 0.00 | 0.00 | 0.00 | 1016.8 | |
| 20260507024549 | -17 | 150 | 11.3 | 22.5 | 0.00 | 0.00 | 0.00 | 1017.2 | |
| 20260507023048 | -17 | 130 | 19.3 | 27.4 | 0.00 | 0.00 | 0.00 | 1017.2 | |
| 20260507021555 | -17 | 152 | 12.9 | 22.5 | 0.00 | 0.00 | 0.00 | 1017.1 | |
| 20260507020043 | -17 | 159 | 12.9 | 27.4 | 0.00 | 0.00 | 0.00 | 1017.4 | |
| 20260507014551 | -17 | 157 | 16.1 | 24.1 | 0.00 | 0.00 | 0.00 | 1017.6 | |
| 20260507013050 | -17 | 205 | 9.7 | 16.1 | 0.00 | 0.00 | 0.00 | 1017.8 | |
| 20260507011550 | -17 | 171 | 16.1 | 24.1 | 0.00 | 0.00 | 0.00 | 1018.0 | |
| 20260507010047 | -17 | 151 | 9.7 | 19.3 | 0.00 | 0.00 | 0.00 | 1018.1 | |
| 20260507004543 | -17 | 164 | 8.0 | 16.1 | 0.00 | 0.00 | 0.00 | 1018.2 | |
| 20260507003047 | -17 | 153 | 6.4 | 14.5 | 0.00 | 0.00 | 0.00 | 1018.1 |